Molonglo, Australia

4:19 PM AEST on April 28, 2017 (GMT +1000)
Madison Apartments | | Change Station

Elev 1916 ft 35.34 °S, 149.15 °E | Updated 32 seconds ago

Scattered Clouds
Scattered Clouds
56.7 °F
Feels Like 56.7 °F
N
0.9
Wind Variable Wind from North
Gusts 3.8 mph

Today
High -- | Low -- °F
--% Chance of Precip.
Yesterday
High -- | Low -- °F
Precip. -- in
Pressure 30.15 in
Visibility 6.2 miles
Clouds Few 4000 ft
Scattered Clouds 21000 ft
Dew Point 39 °F
Humidity 51%
Rainfall 0.00 in
Snow Depth Not available.
6:37 AM 5:23 PM
Waxing Crescent, 5% visible
METAR YSCB 280600Z 32008KT 9999 FEW040 SCT210 15/05 Q1021 NOSIG
Pressure 30.15 in
Visibility 6.2 miles
Clouds Few 4000 ft
Scattered Clouds 21000 ft
Dew Point 39 °F
Humidity 51%
Rainfall 0.00 in
Snow Depth Not available.
6:37 AM 5:23 PM
Waxing Crescent, 5% visible
METAR YSCB 280600Z 32008KT 9999 FEW040 SCT210 15/05 Q1021 NOSIG

Get Severe Weather Alerts

Thanks for signing up!

Be on the lookout for a verification email in your inbox.

You'll start receiving the daily forecast at 8 AM.

×

10-Day Weather Forecast

×

Almanac

Astronomy

Apr. 28, 2017 Rise Set
Actual Time
Civil Twilight
Nautical Twilight
Astronomical Twilight
Moon
Length of Visible Light
Length of Day
Tomorrow will be .
, % of the Moon is Illuminated

Today's Extremes

Country Highs Country Lows

Community

WunderPhotos

WunderBlog® & News

Nearby

Air Quality

  Air Quality AQ Index Pollutant
Not available.

Snow Depth

Station Depth Elevation

Earthquake Activity

City Distance Mag. Time & Date
Minimum magnitude displayed is 2.5.

Coastal Water Temperatures

Place Temperature

Stations

Nearby Weather Stations

Station Location Temp. Windchill Dew Point Humidity Wind Precip. Elev Updated Type